createdAt,value
2022-12-13T00:00:34.710Z,31.30
2022-12-13T00:01:34.709Z,38.30
2022-12-13T00:02:34.776Z,57.40
2022-12-13T00:03:34.710Z,58.20
2022-12-13T00:04:34.663Z,54.50
2022-12-13T00:05:34.665Z,46.50
2022-12-13T00:06:34.669Z,38.50
2022-12-13T00:07:34.646Z,30.10
2022-12-13T00:08:34.647Z,25.40
2022-12-13T00:09:34.618Z,24.40
2022-12-13T00:10:34.598Z,23.80
2022-12-13T00:11:34.597Z,23.80
2022-12-13T00:12:34.628Z,21.90
2022-12-13T00:13:34.589Z,21.80
2022-12-13T00:14:34.588Z,25.20
2022-12-13T00:15:34.558Z,26.40
2022-12-13T00:16:34.579Z,28.70
2022-12-13T00:17:34.534Z,37.10
2022-12-13T00:18:35.474Z,43.80
2022-12-13T00:19:34.561Z,36.50
2022-12-13T00:20:34.494Z,36.40
2022-12-13T00:21:34.489Z,32.10
2022-12-13T00:22:34.471Z,35.60
2022-12-13T00:23:34.470Z,38.70
2022-12-13T00:24:34.450Z,33.60
2022-12-13T00:25:34.469Z,37.50
2022-12-13T00:26:34.452Z,39.80
2022-12-13T00:27:34.444Z,41.50
2022-12-13T00:28:34.414Z,38.90
2022-12-13T00:29:34.443Z,37.50
2022-12-13T00:30:34.435Z,37.50
2022-12-13T00:32:35.369Z,33.10
2022-12-13T00:33:34.375Z,35.00
2022-12-13T00:34:34.351Z,32.60
2022-12-13T00:35:34.367Z,30.20
2022-12-13T00:36:34.328Z,26.00
2022-12-13T00:37:34.322Z,21.00
2022-12-13T00:38:34.310Z,23.10
2022-12-13T00:39:34.287Z,19.80
2022-12-13T00:40:34.919Z,21.50
2022-12-13T00:41:34.266Z,20.10
2022-12-13T00:42:34.268Z,20.30
2022-12-13T00:43:34.248Z,21.40
2022-12-13T00:44:34.234Z,18.90
2022-12-13T00:45:34.224Z,18.80
2022-12-13T00:46:34.252Z,17.40
2022-12-13T00:47:34.202Z,17.20
2022-12-13T00:48:34.193Z,14.90
2022-12-13T00:49:34.183Z,14.80
2022-12-13T00:50:34.187Z,13.10
2022-12-13T00:51:34.159Z,13.00
2022-12-13T00:52:35.141Z,14.50
2022-12-13T00:53:34.143Z,14.80
2022-12-13T00:54:34.125Z,14.90
2022-12-13T00:55:34.143Z,13.00
2022-12-13T00:56:34.151Z,13.80
2022-12-13T00:57:34.123Z,13.70
2022-12-13T00:58:34.087Z,13.70
2022-12-13T00:59:34.090Z,13.70
2022-12-13T01:00:34.086Z,13.20
2022-12-13T01:01:34.138Z,14.40
2022-12-13T01:02:34.098Z,14.50
2022-12-13T01:03:34.059Z,14.00
2022-12-13T01:04:34.014Z,14.10
2022-12-13T01:06:12.846Z,12.00
2022-12-13T01:06:35.021Z,11.10
2022-12-13T01:07:34.014Z,12.70
2022-12-13T01:08:33.990Z,11.60
2022-12-13T01:09:33.963Z,13.40
2022-12-13T01:10:33.998Z,13.00
2022-12-13T01:11:34.067Z,12.40
2022-12-13T01:12:33.949Z,12.30
2022-12-13T01:13:33.926Z,13.10
2022-12-13T01:14:33.915Z,12.90
2022-12-13T01:15:33.908Z,13.20
2022-12-13T01:16:33.918Z,12.30
2022-12-13T01:17:33.896Z,12.10
2022-12-13T01:18:33.899Z,12.10
2022-12-13T01:19:33.885Z,12.00
2022-12-13T01:20:33.851Z,11.60
2022-12-13T01:21:33.844Z,12.70
2022-12-13T01:22:33.890Z,12.30
2022-12-13T01:23:33.807Z,13.00
2022-12-13T01:24:33.817Z,12.70
2022-12-13T01:25:33.800Z,13.10
2022-12-13T01:26:34.760Z,13.70
2022-12-13T01:27:33.788Z,13.10
2022-12-13T01:28:33.796Z,13.50
2022-12-13T01:29:33.806Z,12.20
2022-12-13T01:30:33.790Z,12.70
2022-12-13T01:31:33.751Z,13.20
2022-12-13T01:32:33.738Z,13.80
2022-12-13T01:33:33.727Z,12.20
2022-12-13T01:34:33.747Z,11.30
2022-12-13T01:35:33.690Z,12.50
2022-12-13T01:36:33.679Z,13.00
2022-12-13T01:37:37.495Z,12.20
2022-12-13T01:38:37.860Z,11.90
2022-12-13T01:39:37.911Z,12.10
2022-12-13T01:40:38.769Z,11.80
2022-12-13T01:41:34.643Z,12.10
2022-12-13T01:42:33.616Z,12.50
2022-12-13T01:43:33.609Z,11.40
2022-12-13T01:44:33.600Z,12.60
2022-12-13T01:45:33.609Z,12.50
2022-12-13T01:46:33.621Z,11.30
2022-12-13T01:47:33.583Z,12.80
2022-12-13T01:48:33.549Z,12.80
2022-12-13T01:49:33.538Z,12.50
2022-12-13T01:50:33.533Z,12.40
2022-12-13T01:51:33.539Z,12.50
2022-12-13T01:52:33.523Z,12.80
2022-12-13T01:53:33.503Z,12.10
2022-12-13T01:54:34.407Z,12.50
2022-12-13T01:55:33.508Z,12.30
2022-12-13T01:56:34.467Z,13.40
2022-12-13T01:57:33.444Z,11.80
2022-12-13T01:58:33.490Z,11.90
2022-12-13T01:59:33.429Z,11.80
2022-12-13T02:00:33.442Z,12.90
2022-12-13T02:01:33.453Z,13.10
2022-12-13T02:02:33.405Z,13.70
2022-12-13T02:03:33.372Z,12.90
2022-12-13T02:04:33.436Z,12.70
2022-12-13T02:05:33.372Z,13.60
2022-12-13T02:06:33.350Z,11.90
2022-12-13T02:07:33.360Z,13.60
2022-12-13T02:08:35.731Z,12.10
2022-12-13T02:09:33.332Z,12.40
2022-12-13T02:10:34.252Z,12.70
2022-12-13T02:11:33.301Z,11.50
2022-12-13T02:12:33.321Z,12.20
2022-12-13T02:13:33.271Z,13.00
2022-12-13T02:14:33.272Z,12.50
2022-12-13T02:15:33.341Z,13.10
2022-12-13T02:16:33.247Z,12.30
2022-12-13T02:17:33.225Z,13.30
2022-12-13T02:18:33.252Z,12.80
2022-12-13T02:19:33.214Z,12.40
2022-12-13T02:20:33.208Z,12.30
2022-12-13T02:21:33.213Z,12.70
2022-12-13T02:22:33.173Z,12.30
2022-12-13T02:23:33.152Z,12.10
2022-12-13T02:24:33.172Z,12.50
2022-12-13T02:25:33.188Z,12.10
2022-12-13T02:26:33.142Z,11.60
2022-12-13T02:27:33.205Z,12.60
2022-12-13T02:28:34.115Z,12.30
2022-12-13T02:29:33.098Z,12.30
2022-12-13T02:30:33.091Z,13.30
2022-12-13T02:31:33.198Z,12.80
2022-12-13T02:32:33.084Z,12.30
2022-12-13T02:33:33.057Z,11.50
2022-12-13T02:34:34.188Z,11.60
2022-12-13T02:35:33.054Z,12.10
2022-12-13T02:36:35.908Z,11.90
2022-12-13T02:37:33.009Z,11.50
2022-12-13T02:38:33.014Z,12.10
2022-12-13T02:39:33.006Z,13.00
2022-12-13T02:40:32.975Z,12.20
2022-12-13T02:41:32.987Z,12.30
2022-12-13T02:42:32.962Z,12.10
2022-12-13T02:43:33.508Z,13.20
2022-12-13T02:44:32.976Z,12.10
2022-12-13T02:45:32.928Z,11.40
2022-12-13T02:46:32.940Z,12.00
2022-12-13T02:47:32.899Z,13.00
2022-12-13T02:48:32.915Z,12.10
2022-12-13T02:49:32.914Z,12.70
2022-12-13T02:50:32.886Z,13.50
2022-12-13T02:51:32.861Z,13.40
2022-12-13T02:52:32.875Z,12.60
2022-12-13T02:53:33.694Z,12.30
2022-12-13T02:54:32.849Z,13.10
2022-12-13T02:55:32.887Z,12.70
2022-12-13T02:56:32.807Z,12.60
2022-12-13T02:57:32.801Z,12.80
2022-12-13T02:58:32.815Z,13.00
2022-12-13T02:59:32.893Z,12.10
2022-12-13T03:00:32.777Z,11.70
2022-12-13T03:01:40.175Z,12.20
2022-12-13T03:02:33.875Z,12.30
2022-12-13T03:03:32.823Z,12.40
2022-12-13T03:04:32.748Z,12.60
2022-12-13T03:05:32.701Z,11.90
2022-12-13T03:06:33.527Z,12.30
2022-12-13T03:07:32.682Z,12.50
2022-12-13T03:08:32.740Z,11.80
2022-12-13T03:09:32.662Z,12.30
2022-12-13T03:10:32.650Z,12.60
2022-12-13T03:11:32.648Z,12.80
2022-12-13T03:12:32.667Z,13.30
2022-12-13T03:13:32.615Z,12.60
2022-12-13T03:14:32.787Z,12.00
2022-12-13T03:15:32.596Z,13.20
2022-12-13T03:16:32.660Z,11.70
2022-12-13T03:17:32.570Z,13.40
2022-12-13T03:18:32.577Z,12.90
2022-12-13T03:19:32.571Z,12.40
2022-12-13T03:20:32.558Z,12.70
2022-12-13T03:21:32.537Z,12.50
2022-12-13T03:22:32.551Z,13.30
2022-12-13T03:23:32.520Z,12.20
2022-12-13T03:24:32.504Z,12.30
2022-12-13T03:25:33.062Z,11.50
2022-12-13T03:26:32.481Z,11.10
2022-12-13T03:27:32.468Z,10.90
2022-12-13T03:28:32.532Z,12.60
2022-12-13T03:29:32.440Z,11.70
2022-12-13T03:30:32.440Z,11.30
2022-12-13T03:31:32.454Z,11.70
2022-12-13T03:32:32.416Z,11.40
2022-12-13T03:33:32.402Z,11.40
2022-12-13T03:34:43.548Z,12.90
2022-12-13T03:35:34.833Z,12.60
2022-12-13T03:36:33.370Z,11.30
2022-12-13T03:37:32.340Z,12.00
2022-12-13T03:38:32.350Z,11.80
2022-12-13T03:39:32.333Z,11.90
2022-12-13T03:40:32.323Z,10.90
2022-12-13T03:41:32.456Z,11.60
2022-12-13T03:42:32.354Z,12.20
2022-12-13T03:43:32.279Z,12.00
2022-12-13T03:44:32.273Z,11.80
2022-12-13T03:45:32.258Z,12.40
2022-12-13T03:46:32.277Z,12.50
2022-12-13T03:47:32.259Z,12.00
2022-12-13T03:48:32.241Z,12.40
2022-12-13T03:49:35.242Z,12.00
2022-12-13T03:50:32.204Z,13.00
2022-12-13T03:51:32.216Z,12.50
2022-12-13T03:52:32.189Z,12.10
2022-12-13T03:53:34.217Z,13.30
2022-12-13T03:54:32.163Z,12.60
2022-12-13T03:55:32.147Z,12.40
2022-12-13T03:56:33.178Z,11.60
2022-12-13T03:57:32.127Z,13.30
2022-12-13T03:58:36.156Z,12.40
2022-12-13T03:59:33.130Z,13.20
2022-12-13T04:00:32.094Z,12.10
2022-12-13T04:01:32.160Z,11.50
2022-12-13T04:02:32.064Z,11.70
2022-12-13T04:03:32.092Z,12.20
2022-12-13T04:04:32.072Z,11.70
2022-12-13T04:05:32.024Z,12.60
2022-12-13T04:06:33.131Z,12.60
2022-12-13T04:07:34.060Z,12.70
2022-12-13T04:08:32.091Z,12.10
2022-12-13T04:09:32.044Z,12.40
2022-12-13T04:10:31.998Z,12.40
2022-12-13T04:11:31.977Z,12.30
2022-12-13T04:12:31.979Z,12.90
2022-12-13T04:13:31.947Z,12.60
2022-12-13T04:14:31.986Z,12.30
2022-12-13T04:15:31.925Z,12.30
2022-12-13T04:16:31.978Z,11.60
2022-12-13T04:17:31.942Z,13.00
2022-12-13T04:18:31.904Z,12.10
2022-12-13T04:19:31.887Z,12.90
2022-12-13T04:20:31.896Z,12.00
2022-12-13T04:21:31.855Z,13.00
2022-12-13T04:22:31.849Z,12.80
2022-12-13T04:23:31.847Z,12.20
2022-12-13T04:24:32.368Z,12.70
2022-12-13T04:25:31.925Z,13.80
2022-12-13T04:26:31.805Z,12.70
2022-12-13T04:27:31.815Z,13.40
2022-12-13T04:28:31.814Z,13.30
2022-12-13T04:29:34.717Z,11.90
2022-12-13T04:30:31.795Z,11.80
2022-12-13T04:31:31.811Z,12.60
2022-12-13T04:32:31.739Z,11.90
2022-12-13T04:33:31.718Z,12.80
2022-12-13T04:34:36.911Z,12.50
2022-12-13T04:35:32.757Z,12.80
2022-12-13T04:36:32.816Z,13.00
2022-12-13T04:37:31.676Z,12.20
2022-12-13T04:38:31.674Z,12.50
2022-12-13T04:39:34.201Z,11.70
2022-12-13T04:40:31.648Z,11.80
2022-12-13T04:41:34.363Z,12.80
2022-12-13T04:42:31.646Z,11.80
2022-12-13T04:43:31.637Z,12.70
2022-12-13T04:44:36.534Z,11.60
2022-12-13T04:45:32.671Z,11.80
2022-12-13T04:46:31.613Z,12.30
2022-12-13T04:47:31.555Z,12.50
2022-12-13T04:48:31.834Z,12.10
2022-12-13T04:49:31.646Z,12.60
2022-12-13T04:50:31.596Z,12.20
2022-12-13T04:51:31.618Z,11.70
2022-12-13T04:52:32.479Z,11.90
2022-12-13T04:53:31.586Z,12.40
2022-12-13T04:54:36.337Z,12.30
2022-12-13T04:55:32.474Z,12.70
2022-12-13T04:56:31.460Z,11.80
2022-12-13T04:57:31.464Z,11.90
2022-12-13T04:58:31.448Z,11.90
2022-12-13T04:59:31.439Z,12.20
2022-12-13T05:00:31.441Z,12.30
2022-12-13T05:01:31.470Z,13.10
2022-12-13T05:02:31.482Z,12.40
2022-12-13T05:03:31.417Z,11.90
2022-12-13T05:04:33.146Z,13.00
2022-12-13T05:05:31.369Z,11.70
2022-12-13T05:06:31.360Z,12.50
2022-12-13T05:07:31.341Z,12.30
2022-12-13T05:08:31.375Z,12.60
2022-12-13T05:09:31.349Z,12.70
2022-12-13T05:10:34.016Z,12.50
2022-12-13T05:11:35.818Z,12.20
2022-12-13T05:12:31.294Z,13.40
2022-12-13T05:13:31.277Z,12.20
2022-12-13T05:14:31.271Z,12.50
2022-12-13T05:15:31.329Z,11.80
2022-12-13T05:16:31.290Z,11.90
2022-12-13T05:17:31.239Z,12.10
2022-12-13T05:18:31.230Z,12.10
2022-12-13T05:19:31.916Z,13.90
2022-12-13T05:20:31.191Z,13.10
2022-12-13T05:21:31.259Z,12.20
2022-12-13T05:22:31.169Z,12.40
2022-12-13T05:23:31.167Z,12.70
2022-12-13T05:24:31.252Z,12.00
2022-12-13T05:25:31.154Z,13.40
2022-12-13T05:26:31.143Z,12.50
2022-12-13T05:27:31.122Z,13.00
2022-12-13T05:28:31.140Z,12.10
2022-12-13T05:29:31.101Z,12.50
2022-12-13T05:30:31.081Z,12.00
2022-12-13T05:31:31.140Z,12.80
2022-12-13T05:32:31.077Z,13.30
2022-12-13T05:33:31.056Z,12.30
2022-12-13T05:34:31.072Z,12.50
2022-12-13T05:35:31.030Z,12.70
2022-12-13T05:36:31.001Z,12.80
2022-12-13T05:37:31.007Z,12.40
2022-12-13T05:38:31.001Z,11.60
2022-12-13T05:39:31.012Z,11.90
2022-12-13T05:40:30.972Z,12.30
2022-12-13T05:41:31.054Z,13.10
2022-12-13T05:42:32.319Z,11.90
2022-12-13T05:43:42.254Z,12.40
2022-12-13T05:44:31.948Z,11.80
2022-12-13T05:45:30.945Z,12.30
2022-12-13T05:46:30.938Z,12.50
2022-12-13T05:47:30.891Z,12.40
2022-12-13T05:48:30.872Z,12.40
2022-12-13T05:49:30.863Z,11.40
2022-12-13T05:50:30.872Z,13.30
2022-12-13T05:51:30.853Z,12.90
2022-12-13T05:52:31.254Z,11.50
2022-12-13T05:53:31.353Z,12.30
2022-12-13T05:54:30.844Z,13.20
2022-12-13T05:55:30.823Z,11.80
2022-12-13T05:56:30.796Z,13.00
2022-12-13T05:57:30.786Z,12.10
2022-12-13T05:58:36.015Z,12.40
2022-12-13T05:59:31.785Z,11.90
2022-12-13T06:00:31.129Z,12.50
2022-12-13T06:01:30.742Z,12.10
2022-12-13T06:02:30.882Z,12.60
2022-12-13T06:03:30.889Z,11.90
2022-12-13T06:04:30.695Z,11.70
2022-12-13T06:05:30.701Z,12.70
2022-12-13T06:06:30.693Z,13.10
2022-12-13T06:07:30.665Z,12.20
2022-12-13T06:08:30.721Z,12.20
2022-12-13T06:09:30.650Z,11.50
2022-12-13T06:10:34.390Z,12.40
2022-12-13T06:11:31.576Z,12.50
2022-12-13T06:12:31.693Z,13.20
2022-12-13T06:13:32.315Z,11.70
2022-12-13T06:14:30.590Z,12.20
2022-12-13T06:15:34.796Z,11.60
2022-12-13T06:16:30.635Z,11.80
2022-12-13T06:17:31.512Z,11.90
2022-12-13T06:18:30.548Z,12.50
2022-12-13T06:19:30.550Z,12.20
2022-12-13T06:20:30.545Z,11.80
2022-12-13T06:21:40.785Z,11.80
2022-12-13T06:22:31.520Z,12.80
2022-12-13T06:23:30.505Z,12.10
2022-12-13T06:24:30.513Z,12.00
2022-12-13T06:25:32.135Z,12.20
2022-12-13T06:26:30.476Z,12.30
2022-12-13T06:27:30.454Z,11.70
2022-12-13T06:28:30.449Z,11.90
2022-12-13T06:29:30.458Z,12.20
2022-12-13T06:30:30.461Z,11.90
2022-12-13T06:31:30.426Z,11.90
2022-12-13T06:32:30.396Z,12.80
2022-12-13T06:33:30.384Z,12.30
2022-12-13T06:34:30.395Z,12.30
2022-12-13T06:35:32.212Z,13.40
2022-12-13T06:36:30.376Z,12.90
2022-12-13T06:37:30.341Z,13.10
2022-12-13T06:38:31.403Z,12.20
2022-12-13T06:39:32.722Z,11.60
2022-12-13T06:40:30.550Z,11.00
2022-12-13T06:41:32.202Z,12.30
2022-12-13T06:42:30.305Z,11.50
2022-12-13T06:43:30.266Z,10.90
2022-12-13T06:44:30.601Z,12.00
2022-12-13T06:45:30.305Z,12.10
2022-12-13T06:46:30.286Z,12.60
2022-12-13T06:47:31.711Z,12.30
2022-12-13T06:48:30.250Z,12.10
2022-12-13T06:49:38.863Z,12.20
2022-12-13T06:50:31.216Z,12.80
2022-12-13T06:51:32.456Z,11.40
2022-12-13T06:52:30.182Z,11.80
2022-12-13T06:53:30.197Z,12.70
2022-12-13T06:54:30.164Z,12.50
2022-12-13T06:55:30.195Z,11.50
2022-12-13T06:56:30.144Z,12.10
2022-12-13T06:57:30.119Z,11.50
2022-12-13T06:58:30.166Z,12.30
2022-12-13T06:59:30.334Z,11.30
2022-12-13T07:00:36.802Z,12.90
2022-12-13T07:01:37.935Z,12.20
2022-12-13T07:02:31.173Z,11.70
2022-12-13T07:03:31.035Z,11.70
2022-12-13T07:04:31.094Z,11.20
2022-12-13T07:05:30.074Z,12.00
2022-12-13T07:06:30.022Z,12.10
2022-12-13T07:07:30.021Z,13.10
2022-12-13T07:08:30.069Z,12.50
2022-12-13T07:09:29.996Z,12.20
2022-12-13T07:10:30.082Z,14.20
2022-12-13T07:11:29.984Z,13.90
2022-12-13T07:12:29.969Z,12.50
2022-12-13T07:13:29.980Z,12.60
2022-12-13T07:14:29.934Z,13.10
2022-12-13T07:15:29.968Z,12.90
2022-12-13T07:16:29.915Z,13.50
2022-12-13T07:17:33.933Z,13.10
2022-12-13T07:18:30.857Z,12.80
2022-12-13T07:19:35.413Z,13.30
2022-12-13T07:20:30.898Z,12.00
2022-12-13T07:21:29.875Z,13.00
2022-12-13T07:22:34.642Z,12.40
2022-12-13T07:23:30.849Z,13.10
2022-12-13T07:24:29.825Z,12.40
2022-12-13T07:25:29.988Z,12.90
2022-12-13T07:26:29.807Z,13.00
2022-12-13T07:27:29.813Z,12.10
2022-12-13T07:28:29.800Z,13.70
2022-12-13T07:29:29.771Z,12.90
2022-12-13T07:30:29.821Z,12.10
2022-12-13T07:31:29.811Z,12.40
2022-12-13T07:32:29.737Z,12.70
2022-12-13T07:33:29.735Z,11.90
2022-12-13T07:34:29.744Z,12.30
2022-12-13T07:35:29.714Z,12.70
2022-12-13T07:36:29.711Z,12.40
2022-12-13T07:37:31.165Z,12.90
2022-12-13T07:38:30.632Z,13.50
2022-12-13T07:39:29.684Z,13.10
2022-12-13T07:40:29.659Z,13.40
2022-12-13T07:41:29.686Z,12.80
2022-12-13T07:42:29.669Z,13.90
2022-12-13T07:43:29.623Z,12.70
2022-12-13T07:44:29.628Z,12.80
2022-12-13T07:45:29.719Z,13.20
2022-12-13T07:46:33.051Z,13.20
2022-12-13T07:47:29.574Z,12.00
2022-12-13T07:48:29.557Z,12.30
2022-12-13T07:49:29.606Z,12.70
2022-12-13T07:50:29.628Z,12.90
2022-12-13T07:51:30.568Z,12.60
2022-12-13T07:52:29.526Z,13.20
2022-12-13T07:53:29.535Z,13.30
2022-12-13T07:54:29.494Z,13.80
2022-12-13T07:55:33.740Z,13.40
2022-12-13T07:56:29.496Z,14.40
2022-12-13T07:57:29.465Z,13.70
2022-12-13T07:58:29.496Z,13.60
2022-12-13T07:59:29.445Z,13.10
2022-12-13T08:00:29.438Z,12.80
2022-12-13T08:01:29.513Z,13.30
2022-12-13T08:02:29.411Z,14.60
2022-12-13T08:03:29.550Z,14.20
2022-12-13T08:04:29.630Z,14.30
2022-12-13T08:05:38.771Z,13.20
2022-12-13T08:06:30.361Z,14.80
2022-12-13T08:07:29.369Z,14.00
2022-12-13T08:08:30.973Z,13.40
2022-12-13T08:09:29.378Z,13.40
2022-12-13T08:10:29.332Z,13.30
2022-12-13T08:11:29.336Z,12.30
2022-12-13T08:12:29.361Z,12.50
2022-12-13T08:13:29.316Z,13.80
2022-12-13T08:14:29.297Z,12.80
2022-12-13T08:15:29.286Z,14.60
2022-12-13T08:16:30.058Z,14.10
2022-12-13T08:17:29.261Z,13.50
2022-12-13T08:18:29.244Z,13.70
2022-12-13T08:19:29.258Z,13.10
2022-12-13T08:20:29.233Z,13.70
2022-12-13T08:21:53.459Z,13.60
2022-12-13T08:22:30.190Z,13.00
2022-12-13T08:23:30.185Z,13.90
2022-12-13T08:24:29.182Z,14.30
2022-12-13T08:25:29.258Z,13.80
2022-12-13T08:26:29.142Z,14.60
2022-12-13T08:27:29.189Z,15.00
2022-12-13T08:28:29.132Z,13.90
2022-12-13T08:29:33.571Z,15.30
2022-12-13T08:30:30.110Z,14.10
2022-12-13T08:31:29.123Z,14.30
2022-12-13T08:32:30.069Z,14.30
2022-12-13T08:33:29.082Z,14.90
2022-12-13T08:34:29.050Z,14.30
2022-12-13T08:35:33.941Z,14.90
2022-12-13T08:36:30.027Z,14.20
2022-12-13T08:37:29.062Z,14.80
2022-12-13T08:38:29.020Z,13.00
2022-12-13T08:39:29.111Z,14.80
2022-12-13T08:40:29.049Z,13.40
2022-12-13T08:41:29.000Z,14.50
2022-12-13T08:42:29.947Z,14.90
2022-12-13T08:43:28.969Z,15.40
2022-12-13T08:44:29.562Z,14.90
2022-12-13T08:45:28.964Z,15.50
2022-12-13T08:46:29.021Z,15.10
2022-12-13T08:47:28.940Z,14.80
2022-12-13T08:48:28.904Z,16.20
2022-12-13T08:49:28.957Z,16.00
2022-12-13T08:50:28.941Z,15.80
2022-12-13T08:51:33.928Z,14.40
2022-12-13T08:52:29.862Z,15.10
2022-12-13T08:53:31.773Z,14.90
2022-12-13T08:54:31.455Z,16.20
2022-12-13T08:55:31.449Z,16.10
2022-12-13T08:56:28.937Z,16.10
2022-12-13T08:57:28.801Z,16.70
2022-12-13T08:58:28.810Z,16.40
2022-12-13T08:59:28.772Z,16.80
2022-12-13T09:00:28.812Z,15.60
2022-12-13T09:01:29.768Z,15.80
2022-12-13T09:02:28.808Z,15.70
2022-12-13T09:03:28.771Z,16.80
2022-12-13T09:04:31.450Z,16.20
2022-12-13T09:05:34.351Z,17.20
2022-12-13T09:06:29.692Z,17.10
2022-12-13T09:07:28.695Z,16.40
2022-12-13T09:08:28.775Z,14.90
2022-12-13T09:09:29.751Z,16.30
2022-12-13T09:10:28.791Z,15.70
2022-12-13T09:11:36.539Z,15.60
2022-12-13T09:12:31.168Z,15.90
2022-12-13T09:13:32.341Z,15.90
2022-12-13T09:14:34.075Z,16.10
2022-12-13T09:15:29.679Z,17.00
2022-12-13T09:16:29.720Z,16.60
2022-12-13T09:17:29.923Z,16.60
2022-12-13T09:18:36.196Z,16.20
2022-12-13T09:19:29.621Z,16.50
2022-12-13T09:20:30.207Z,17.10
2022-12-13T09:21:31.746Z,16.50
2022-12-13T09:22:33.409Z,17.20
2022-12-13T09:23:30.230Z,17.70
2022-12-13T09:24:29.505Z,17.00
2022-12-13T09:25:29.499Z,17.30
2022-12-13T09:26:29.557Z,16.30
2022-12-13T09:27:29.479Z,17.30
2022-12-13T09:28:28.467Z,16.60
2022-12-13T09:29:28.637Z,16.50
2022-12-13T09:30:31.396Z,16.80
2022-12-13T09:31:28.490Z,16.70
2022-12-13T09:32:28.458Z,17.00
2022-12-13T09:33:30.722Z,17.90
2022-12-13T09:34:28.460Z,16.50
2022-12-13T09:35:28.388Z,15.70
2022-12-13T09:36:28.427Z,16.60
2022-12-13T09:37:28.362Z,16.30
2022-12-13T09:38:28.360Z,17.50
2022-12-13T09:39:28.357Z,16.60
2022-12-13T09:40:28.365Z,15.60
2022-12-13T09:41:29.580Z,16.80
2022-12-13T09:42:30.807Z,16.60
2022-12-13T09:43:31.625Z,16.70
2022-12-13T09:44:31.575Z,17.30
2022-12-13T09:45:32.002Z,16.20
2022-12-13T09:46:34.658Z,17.40
2022-12-13T09:47:35.532Z,17.20
2022-12-13T09:48:34.924Z,17.20
2022-12-13T09:49:35.189Z,17.50
2022-12-13T09:50:29.426Z,18.10
2022-12-13T09:51:41.208Z,17.60
2022-12-13T09:52:33.484Z,18.20
2022-12-13T09:53:34.013Z,17.30
2022-12-13T09:54:29.230Z,18.50
2022-12-13T09:55:28.214Z,16.00
2022-12-13T09:56:28.158Z,16.50
2022-12-13T09:57:31.084Z,16.20
2022-12-13T09:58:28.151Z,16.60
2022-12-13T09:59:28.188Z,17.40
2022-12-13T10:00:29.105Z,16.60
2022-12-13T10:01:28.156Z,18.40
2022-12-13T10:02:28.143Z,17.10
2022-12-13T10:03:28.081Z,18.40
2022-12-13T10:04:28.090Z,18.10
2022-12-13T10:05:37.240Z,18.10
2022-12-13T10:06:29.338Z,18.60
2022-12-13T10:07:28.070Z,18.40
2022-12-13T10:08:28.033Z,18.00
2022-12-13T10:09:28.072Z,17.00
2022-12-13T10:10:28.101Z,18.40
2022-12-13T10:11:32.190Z,17.40
2022-12-13T10:12:29.012Z,16.40
2022-12-13T10:13:27.972Z,17.50
2022-12-13T10:14:27.974Z,17.00
2022-12-13T10:15:27.950Z,18.00
2022-12-13T10:16:27.994Z,17.20
2022-12-13T10:17:28.952Z,17.80
2022-12-13T10:18:27.921Z,18.00
2022-12-13T10:19:28.126Z,18.40
2022-12-13T10:20:27.905Z,19.50
2022-12-13T10:21:27.901Z,18.10
2022-12-13T10:22:27.912Z,18.70
2022-12-13T10:23:42.732Z,17.80
2022-12-13T10:24:36.433Z,16.30
2022-12-13T10:25:28.847Z,17.90
2022-12-13T10:26:27.884Z,17.00
2022-12-13T10:27:27.828Z,16.30
2022-12-13T10:28:27.851Z,16.30
2022-12-13T10:29:27.801Z,16.00
2022-12-13T10:30:29.193Z,16.30
2022-12-13T10:31:27.876Z,16.00
2022-12-13T10:32:27.776Z,15.80
2022-12-13T10:33:27.752Z,14.50
2022-12-13T10:34:27.765Z,13.90
2022-12-13T10:35:27.758Z,15.10
2022-12-13T10:36:27.745Z,13.90
2022-12-13T10:37:27.884Z,14.40
2022-12-13T10:38:32.264Z,13.50
2022-12-13T10:39:27.693Z,13.80
2022-12-13T10:40:32.719Z,13.60
2022-12-13T10:41:28.674Z,13.30
2022-12-13T10:42:32.297Z,13.50
2022-12-13T10:43:28.701Z,13.70
2022-12-13T10:44:27.647Z,13.80
2022-12-13T10:45:27.631Z,13.10
2022-12-13T10:46:27.660Z,14.10
2022-12-13T10:47:27.664Z,13.90
2022-12-13T10:48:27.610Z,14.40
2022-12-13T10:49:27.583Z,13.80
2022-12-13T10:50:27.702Z,13.20
2022-12-13T10:51:27.566Z,13.90
2022-12-13T10:52:30.782Z,13.60
2022-12-13T10:53:27.544Z,14.00
2022-12-13T10:54:27.536Z,13.60
2022-12-13T10:55:27.628Z,13.10
2022-12-13T10:57:24.364Z,12.50
2022-12-13T10:58:22.479Z,12.20
2022-12-13T10:59:22.466Z,12.80
2022-12-13T11:00:22.416Z,12.80
2022-12-13T11:01:22.474Z,13.70
2022-12-13T11:02:22.462Z,12.40
2022-12-13T11:03:22.822Z,13.20
2022-12-13T11:04:27.112Z,13.70
2022-12-13T11:05:23.566Z,13.00
2022-12-13T11:06:23.695Z,12.90
2022-12-13T11:07:22.330Z,13.60
2022-12-13T11:08:22.750Z,13.60
2022-12-13T11:09:22.932Z,13.40
2022-12-13T11:10:26.863Z,13.10
2022-12-13T11:11:23.360Z,12.60
2022-12-13T11:12:22.292Z,13.00
2022-12-13T11:13:23.099Z,13.00
2022-12-13T11:14:32.115Z,12.90
2022-12-13T11:15:23.461Z,12.50
2022-12-13T11:16:22.329Z,13.20
2022-12-13T11:17:22.232Z,13.10
2022-12-13T11:18:22.906Z,13.60
2022-12-13T11:19:22.241Z,12.80
2022-12-13T11:20:22.204Z,11.90
2022-12-13T11:21:22.184Z,12.80
2022-12-13T11:22:22.204Z,12.90
2022-12-13T11:23:22.165Z,12.20
2022-12-13T11:24:23.187Z,12.60
2022-12-13T11:25:22.163Z,13.00
2022-12-13T11:26:24.283Z,13.00
2022-12-13T11:27:22.155Z,12.20
2022-12-13T11:28:27.034Z,12.50
2022-12-13T11:29:23.083Z,12.40
2022-12-13T11:30:22.089Z,12.50
2022-12-13T11:31:22.148Z,12.00
2022-12-13T11:32:22.902Z,12.20
2022-12-13T11:33:22.087Z,12.10
2022-12-13T11:34:22.054Z,11.60
2022-12-13T11:35:22.020Z,12.20
2022-12-13T11:36:22.049Z,11.00
2022-12-13T11:37:22.050Z,11.80
2022-12-13T11:38:22.284Z,11.20
2022-12-13T11:39:21.987Z,12.70
2022-12-13T11:40:21.978Z,11.00
2022-12-13T11:41:32.453Z,10.80
2022-12-13T11:42:22.947Z,11.60
2022-12-13T11:43:21.971Z,11.80
2022-12-13T11:44:21.942Z,11.80
2022-12-13T11:45:22.268Z,12.20
2022-12-13T11:46:21.980Z,11.40
2022-12-13T11:47:21.897Z,11.50
2022-12-13T11:48:21.918Z,11.50
2022-12-13T11:49:21.898Z,11.40
2022-12-13T11:50:33.405Z,12.40
2022-12-13T11:51:22.847Z,10.90
2022-12-13T11:52:21.846Z,11.70
2022-12-13T11:53:22.137Z,10.00
2022-12-13T11:54:23.620Z,9.90
2022-12-13T11:55:21.827Z,10.00
2022-12-13T11:56:21.832Z,10.20
2022-12-13T11:57:21.841Z,10.40
2022-12-13T11:58:53.517Z,10.90
2022-12-13T11:59:26.978Z,10.40
2022-12-13T12:00:34.519Z,10.10
2022-12-13T12:01:22.752Z,10.40
2022-12-13T12:02:21.875Z,9.90
2022-12-13T12:03:21.791Z,10.10
2022-12-13T12:04:21.721Z,10.40
2022-12-13T12:05:21.705Z,9.90
2022-12-13T12:06:21.720Z,9.60
2022-12-13T12:07:36.964Z,9.80
2022-12-13T12:08:32.011Z,9.50
2022-12-13T12:09:22.681Z,9.60
2022-12-13T12:10:21.661Z,9.50
2022-12-13T12:11:21.687Z,9.00
2022-12-13T12:12:22.053Z,9.40
2022-12-13T12:13:21.633Z,9.60
2022-12-13T12:14:21.620Z,9.30
2022-12-13T12:15:26.651Z,9.20
2022-12-13T12:16:22.595Z,9.90
2022-12-13T12:17:21.574Z,10.00
2022-12-13T12:18:21.560Z,9.40
2022-12-13T12:19:21.550Z,8.70
2022-12-13T12:20:23.344Z,8.60
2022-12-13T12:21:21.556Z,9.20
2022-12-13T12:22:21.537Z,9.30
2022-12-13T12:23:21.504Z,9.70
2022-12-13T12:24:21.492Z,10.10
2022-12-13T12:25:21.497Z,9.30
2022-12-13T12:26:21.536Z,8.50
2022-12-13T12:27:22.728Z,10.30
2022-12-13T12:28:21.463Z,9.50
2022-12-13T12:29:21.453Z,8.60
2022-12-13T12:30:22.835Z,8.70
2022-12-13T12:31:22.963Z,8.00
2022-12-13T12:32:21.408Z,7.90
2022-12-13T12:33:21.397Z,8.30
2022-12-13T12:34:27.331Z,8.10
2022-12-13T12:35:22.642Z,8.20
2022-12-13T12:36:21.364Z,8.10
2022-12-13T12:37:22.171Z,8.40
2022-12-13T12:38:21.765Z,8.50
2022-12-13T12:39:26.605Z,8.20
2022-12-13T12:40:22.900Z,8.60
2022-12-13T12:41:21.310Z,8.70
2022-12-13T12:42:21.309Z,8.30
2022-12-13T12:43:21.277Z,8.10
2022-12-13T12:44:21.289Z,8.20
2022-12-13T12:45:54.756Z,8.00
2022-12-13T12:46:23.115Z,7.90
2022-12-13T12:47:55.079Z,7.80
2022-12-13T12:49:23.261Z,7.40
2022-12-13T12:50:21.215Z,7.70
2022-12-13T12:51:21.225Z,8.00
2022-12-13T12:52:21.179Z,8.10
2022-12-13T12:53:21.171Z,7.90
2022-12-13T12:54:21.156Z,7.50
2022-12-13T12:55:21.146Z,7.90
2022-12-13T12:56:21.140Z,8.50
2022-12-13T12:57:21.169Z,8.10